sensor_id;sensor_type;location;lat;lon;timestamp;pressure;altitude;pressure_sealevel;temperature;humidity
50349;BME280;36250;48.740;22.174;2023-04-24T00:01:20;99932.59;;;11.13;60.32
50349;BME280;36250;48.740;22.174;2023-04-24T00:03:46;99925.22;;;11.09;61.02
50349;BME280;36250;48.740;22.174;2023-04-24T00:06:11;99923.78;;;11.01;61.20
50349;BME280;36250;48.740;22.174;2023-04-24T00:08:36;99926.38;;;10.86;61.86
50349;BME280;36250;48.740;22.174;2023-04-24T00:11:02;99923.50;;;10.71;61.70
50349;BME280;36250;48.740;22.174;2023-04-24T00:13:28;99923.94;;;10.58;62.54
50349;BME280;36250;48.740;22.174;2023-04-24T00:15:54;99915.09;;;10.46;62.50
50349;BME280;36250;48.740;22.174;2023-04-24T00:18:20;99919.59;;;10.35;63.02
50349;BME280;36250;48.740;22.174;2023-04-24T00:20:45;99919.09;;;10.38;63.02
50349;BME280;36250;48.740;22.174;2023-04-24T00:23:11;99916.22;;;10.50;62.91
50349;BME280;36250;48.740;22.174;2023-04-24T00:25:37;99918.91;;;10.45;63.04
50349;BME280;36250;48.740;22.174;2023-04-24T00:28:02;99917.00;;;10.45;62.75
50349;BME280;36250;48.740;22.174;2023-04-24T00:30:28;99916.44;;;10.43;62.75
50349;BME280;36250;48.740;22.174;2023-04-24T00:32:53;99923.88;;;10.26;63.41
50349;BME280;36250;48.740;22.174;2023-04-24T00:35:19;99916.72;;;10.20;63.84
50349;BME280;36250;48.740;22.174;2023-04-24T00:37:45;99915.31;;;10.18;63.72
50349;BME280;36250;48.740;22.174;2023-04-24T00:40:10;99912.72;;;10.28;63.27
50349;BME280;36250;48.740;22.174;2023-04-24T00:42:36;99907.13;;;10.39;62.98
50349;BME280;36250;48.740;22.174;2023-04-24T00:45:02;99917.28;;;10.44;62.87
50349;BME280;36250;48.740;22.174;2023-04-24T00:47:28;99911.81;;;10.44;62.68
50349;BME280;36250;48.740;22.174;2023-04-24T00:49:54;99912.50;;;10.34;62.91
50349;BME280;36250;48.740;22.174;2023-04-24T00:52:20;99906.72;;;10.26;62.91
50349;BME280;36250;48.740;22.174;2023-04-24T00:54:45;99903.38;;;10.19;63.11
50349;BME280;36250;48.740;22.174;2023-04-24T00:57:12;99906.59;;;10.16;63.19
50349;BME280;36250;48.740;22.174;2023-04-24T00:59:39;99904.16;;;10.14;63.50
50349;BME280;36250;48.740;22.174;2023-04-24T01:02:06;99903.38;;;10.19;63.37
50349;BME280;36250;48.740;22.174;2023-04-24T01:04:32;99901.66;;;10.13;63.69
50349;BME280;36250;48.740;22.174;2023-04-24T01:06:57;99904.28;;;10.08;63.92
50349;BME280;36250;48.740;22.174;2023-04-24T01:09:23;99901.00;;;10.06;64.46
50349;BME280;36250;48.740;22.174;2023-04-24T01:11:49;99901.56;;;10.08;64.61
50349;BME280;36250;48.740;22.174;2023-04-24T01:14:15;99910.19;;;10.00;64.44
50349;BME280;36250;48.740;22.174;2023-04-24T01:16:40;99909.31;;;9.94;64.86
50349;BME280;36250;48.740;22.174;2023-04-24T01:19:07;99904.81;;;9.83;65.00
50349;BME280;36250;48.740;22.174;2023-04-24T01:21:36;99906.66;;;9.77;65.39
50349;BME280;36250;48.740;22.174;2023-04-24T01:24:02;99903.38;;;9.75;65.33
50349;BME280;36250;48.740;22.174;2023-04-24T01:26:27;99901.97;;;9.73;65.40
50349;BME280;36250;48.740;22.174;2023-04-24T01:28:53;99905.19;;;9.70;65.57
50349;BME280;36250;48.740;22.174;2023-04-24T01:31:18;99902.72;;;9.68;65.56
50349;BME280;36250;48.740;22.174;2023-04-24T01:33:44;99900.50;;;9.65;66.09
50349;BME280;36250;48.740;22.174;2023-04-24T01:36:11;99900.00;;;9.68;65.92
50349;BME280;36250;48.740;22.174;2023-04-24T01:38:36;99892.44;;;9.70;65.87
50349;BME280;36250;48.740;22.174;2023-04-24T01:41:02;99890.50;;;9.71;65.68
50349;BME280;36250;48.740;22.174;2023-04-24T01:43:28;99891.28;;;9.66;65.98
50349;BME280;36250;48.740;22.174;2023-04-24T01:45:53;99891.72;;;9.58;65.83
50349;BME280;36250;48.740;22.174;2023-04-24T01:48:19;99889.25;;;9.57;65.79
50349;BME280;36250;48.740;22.174;2023-04-24T01:50:44;99890.91;;;9.58;66.02
50349;BME280;36250;48.740;22.174;2023-04-24T01:53:10;99895.50;;;9.57;65.94
50349;BME280;36250;48.740;22.174;2023-04-24T01:55:36;99895.50;;;9.57;66.72
50349;BME280;36250;48.740;22.174;2023-04-24T01:58:01;99895.84;;;9.44;66.84
50349;BME280;36250;48.740;22.174;2023-04-24T02:00:27;99891.75;;;9.42;66.93
50349;BME280;36250;48.740;22.174;2023-04-24T02:02:52;99893.31;;;9.38;66.93
50349;BME280;36250;48.740;22.174;2023-04-24T02:05:18;99880.75;;;9.32;66.95
50349;BME280;36250;48.740;22.174;2023-04-24T02:07:43;99885.84;;;9.28;67.21
50349;BME280;36250;48.740;22.174;2023-04-24T02:10:09;99883.13;;;9.28;67.17
50349;BME280;36250;48.740;22.174;2023-04-24T02:12:35;99881.94;;;9.19;67.14
50349;BME280;36250;48.740;22.174;2023-04-24T02:15:00;99880.44;;;9.28;66.93
50349;BME280;36250;48.740;22.174;2023-04-24T02:17:26;99880.25;;;9.35;66.95
50349;BME280;36250;48.740;22.174;2023-04-24T02:19:51;99883.03;;;9.40;66.51
50349;BME280;36250;48.740;22.174;2023-04-24T02:22:17;99876.19;;;9.37;66.35
50349;BME280;36250;48.740;22.174;2023-04-24T02:24:42;99874.66;;;9.41;66.55
50349;BME280;36250;48.740;22.174;2023-04-24T02:27:07;99867.56;;;9.40;66.50
50349;BME280;36250;48.740;22.174;2023-04-24T02:29:33;99863.44;;;9.38;66.67
50349;BME280;36250;48.740;22.174;2023-04-24T02:31:58;99862.88;;;9.36;66.65
50349;BME280;36250;48.740;22.174;2023-04-24T02:34:23;99866.59;;;9.30;66.57
50349;BME280;36250;48.740;22.174;2023-04-24T02:36:49;99871.84;;;9.36;67.02
50349;BME280;36250;48.740;22.174;2023-04-24T02:39:15;99865.09;;;9.39;66.41
50349;BME280;36250;48.740;22.174;2023-04-24T02:41:43;99865.41;;;9.42;66.60
50349;BME280;36250;48.740;22.174;2023-04-24T02:44:09;99862.50;;;9.49;66.28
50349;BME280;36250;48.740;22.174;2023-04-24T02:46:35;99858.78;;;9.55;65.76
50349;BME280;36250;48.740;22.174;2023-04-24T02:49:00;99862.97;;;9.62;65.88
50349;BME280;36250;48.740;22.174;2023-04-24T02:51:25;99850.44;;;9.61;65.30
50349;BME280;36250;48.740;22.174;2023-04-24T02:53:52;99858.16;;;9.69;65.09
50349;BME280;36250;48.740;22.174;2023-04-24T02:56:17;99853.06;;;9.73;64.50
50349;BME280;36250;48.740;22.174;2023-04-24T02:58:42;99845.97;;;9.72;64.37
50349;BME280;36250;48.740;22.174;2023-04-24T03:01:08;99861.06;;;9.84;64.51
50349;BME280;36250;48.740;22.174;2023-04-24T03:03:35;99855.69;;;9.89;63.86
50349;BME280;36250;48.740;22.174;2023-04-24T03:06:00;99854.31;;;9.87;63.69
50349;BME280;36250;48.740;22.174;2023-04-24T03:08:26;99867.41;;;9.90;63.57
50349;BME280;36250;48.740;22.174;2023-04-24T03:10:52;99856.19;;;9.86;63.92
50349;BME280;36250;48.740;22.174;2023-04-24T03:13:17;99855.94;;;9.88;63.38
50349;BME280;36250;48.740;22.174;2023-04-24T03:15:42;99859.47;;;9.88;63.60
50349;BME280;36250;48.740;22.174;2023-04-24T03:18:08;99852.72;;;9.91;63.28
50349;BME280;36250;48.740;22.174;2023-04-24T03:20:33;99857.91;;;9.93;63.27
50349;BME280;36250;48.740;22.174;2023-04-24T03:22:58;99857.09;;;9.92;63.19
50349;BME280;36250;48.740;22.174;2023-04-24T03:25:24;99854.09;;;9.93;63.05
50349;BME280;36250;48.740;22.174;2023-04-24T03:27:50;99849.75;;;9.93;63.01
50349;BME280;36250;48.740;22.174;2023-04-24T03:30:15;99858.34;;;9.84;62.83
50349;BME280;36250;48.740;22.174;2023-04-24T03:32:40;99863.28;;;9.87;63.09
50349;BME280;36250;48.740;22.174;2023-04-24T03:35:07;99857.25;;;9.85;62.83
50349;BME280;36250;48.740;22.174;2023-04-24T03:37:33;99859.13;;;9.80;63.03
50349;BME280;36250;48.740;22.174;2023-04-24T03:39:58;99862.91;;;9.57;63.82
50349;BME280;36250;48.740;22.174;2023-04-24T03:42:24;99862.88;;;9.36;64.23
50349;BME280;36250;48.740;22.174;2023-04-24T03:44:49;99859.88;;;9.15;64.97
50349;BME280;36250;48.740;22.174;2023-04-24T03:47:15;99863.44;;;8.99;65.67
50349;BME280;36250;48.740;22.174;2023-04-24T03:49:40;99860.16;;;8.97;66.22
50349;BME280;36250;48.740;22.174;2023-04-24T03:52:05;99869.34;;;8.96;66.44
50349;BME280;36250;48.740;22.174;2023-04-24T03:54:31;99865.81;;;8.96;66.45
50349;BME280;36250;48.740;22.174;2023-04-24T03:56:56;99865.50;;;8.92;66.95
50349;BME280;36250;48.740;22.174;2023-04-24T03:59:22;99869.53;;;8.90;66.89
50349;BME280;36250;48.740;22.174;2023-04-24T04:01:47;99875.53;;;8.92;67.18
50349;BME280;36250;48.740;22.174;2023-04-24T04:04:12;99873.94;;;8.96;67.13
50349;BME280;36250;48.740;22.174;2023-04-24T04:06:38;99870.50;;;9.00;67.33
50349;BME280;36250;48.740;22.174;2023-04-24T04:09:03;99867.63;;;9.07;66.82
50349;BME280;36250;48.740;22.174;2023-04-24T04:11:29;99865.38;;;9.20;66.77
50349;BME280;36250;48.740;22.174;2023-04-24T04:13:55;99864.13;;;9.28;66.45
50349;BME280;36250;48.740;22.174;2023-04-24T04:16:22;99870.19;;;9.35;66.53
50349;BME280;36250;48.740;22.174;2023-04-24T04:18:47;99869.31;;;9.51;65.71
50349;BME280;36250;48.740;22.174;2023-04-24T04:21:12;99860.81;;;9.64;65.74
50349;BME280;36250;48.740;22.174;2023-04-24T04:23:38;99865.88;;;9.77;65.38
50349;BME280;36250;48.740;22.174;2023-04-24T04:26:04;99865.47;;;9.90;65.41
50349;BME280;36250;48.740;22.174;2023-04-24T04:28:30;99866.22;;;10.08;64.92
50349;BME280;36250;48.740;22.174;2023-04-24T04:30:58;99868.06;;;10.24;64.13
50349;BME280;36250;48.740;22.174;2023-04-24T04:33:24;99862.22;;;10.37;63.98
50349;BME280;36250;48.740;22.174;2023-04-24T04:35:51;99861.59;;;10.56;64.11
50349;BME280;36250;48.740;22.174;2023-04-24T04:38:17;99865.88;;;10.79;63.24
50349;BME280;36250;48.740;22.174;2023-04-24T04:40:43;99861.63;;;10.93;63.07
50349;BME280;36250;48.740;22.174;2023-04-24T04:43:08;99858.44;;;11.01;62.62
50349;BME280;36250;48.740;22.174;2023-04-24T04:45:35;99860.34;;;11.06;62.09
50349;BME280;36250;48.740;22.174;2023-04-24T04:48:01;99856.09;;;11.15;62.08
50349;BME280;36250;48.740;22.174;2023-04-24T04:50:27;99858.63;;;11.32;61.86
50349;BME280;36250;48.740;22.174;2023-04-24T04:52:52;99860.31;;;11.43;61.37
50349;BME280;36250;48.740;22.174;2023-04-24T04:55:18;99850.28;;;11.48;61.11
50349;BME280;36250;48.740;22.174;2023-04-24T04:57:45;99859.38;;;11.64;61.25
50349;BME280;36250;48.740;22.174;2023-04-24T05:00:11;99861.06;;;11.75;61.96
50349;BME280;36250;48.740;22.174;2023-04-24T05:02:36;99866.81;;;11.78;62.97
50349;BME280;36250;48.740;22.174;2023-04-24T05:05:02;99868.44;;;11.74;63.74
50349;BME280;36250;48.740;22.174;2023-04-24T05:07:27;99869.81;;;11.82;63.39
50349;BME280;36250;48.740;22.174;2023-04-24T05:09:52;99855.16;;;11.93;62.26
50349;BME280;36250;48.740;22.174;2023-04-24T05:12:18;99865.50;;;11.96;61.50
50349;BME280;36250;48.740;22.174;2023-04-24T05:14:43;99864.97;;;11.99;62.22
50349;BME280;36250;48.740;22.174;2023-04-24T05:17:08;99854.63;;;12.06;61.82
50349;BME280;36250;48.740;22.174;2023-04-24T05:19:35;99858.47;;;12.05;62.65
50349;BME280;36250;48.740;22.174;2023-04-24T05:22:02;99850.03;;;12.17;62.31
50349;BME280;36250;48.740;22.174;2023-04-24T05:24:29;99849.25;;;12.26;62.76
50349;BME280;36250;48.740;22.174;2023-04-24T05:26:54;99860.19;;;12.36;61.71
50349;BME280;36250;48.740;22.174;2023-04-24T05:29:20;99848.72;;;12.39;62.13
50349;BME280;36250;48.740;22.174;2023-04-24T05:31:46;99858.03;;;12.53;61.94
50349;BME280;36250;48.740;22.174;2023-04-24T05:34:11;99856.66;;;12.66;62.72
50349;BME280;36250;48.740;22.174;2023-04-24T05:36:37;99856.09;;;12.74;63.24
50349;BME280;36250;48.740;22.174;2023-04-24T05:39:02;99853.66;;;12.83;63.52
50349;BME280;36250;48.740;22.174;2023-04-24T05:41:30;99855.28;;;12.84;62.40
50349;BME280;36250;48.740;22.174;2023-04-24T05:43:55;99858.59;;;12.86;63.05
50349;BME280;36250;48.740;22.174;2023-04-24T05:46:20;99858.03;;;12.94;63.76
50349;BME280;36250;48.740;22.174;2023-04-24T05:48:46;99858.59;;;13.06;64.40
50349;BME280;36250;48.740;22.174;2023-04-24T05:51:11;99846.03;;;13.20;64.63
50349;BME280;36250;48.740;22.174;2023-04-24T05:53:36;99848.16;;;13.33;63.90
50349;BME280;36250;48.740;22.174;2023-04-24T05:56:02;99850.88;;;13.43;64.96
50349;BME280;36250;48.740;22.174;2023-04-24T05:58:27;99846.75;;;13.51;65.15
50349;BME280;36250;48.740;22.174;2023-04-24T06:00:52;99840.72;;;13.59;65.08
50349;BME280;36250;48.740;22.174;2023-04-24T06:03:18;99838.50;;;13.71;63.32
50349;BME280;36250;48.740;22.174;2023-04-24T06:05:43;99843.66;;;13.77;61.57
50349;BME280;36250;48.740;22.174;2023-04-24T06:08:09;99839.78;;;13.94;61.59
50349;BME280;36250;48.740;22.174;2023-04-24T06:10:35;99842.41;;;14.09;60.42
50349;BME280;36250;48.740;22.174;2023-04-24T06:13:00;99839.06;;;14.22;58.69
50349;BME280;36250;48.740;22.174;2023-04-24T06:15:30;99834.38;;;14.32;58.44
50349;BME280;36250;48.740;22.174;2023-04-24T06:17:56;99828.03;;;14.42;58.10
50349;BME280;36250;48.740;22.174;2023-04-24T06:20:22;99840.06;;;14.41;58.01
50349;BME280;36250;48.740;22.174;2023-04-24T06:22:47;99827.25;;;14.31;57.96
50349;BME280;36250;48.740;22.174;2023-04-24T06:25:12;99835.16;;;14.38;57.79
50349;BME280;36250;48.740;22.174;2023-04-24T06:27:38;99830.19;;;14.45;57.54
50349;BME280;36250;48.740;22.174;2023-04-24T06:30:03;99835.09;;;14.48;57.57
50349;BME280;36250;48.740;22.174;2023-04-24T06:32:29;99841.34;;;14.54;57.15
50349;BME280;36250;48.740;22.174;2023-04-24T06:34:55;99845.44;;;14.56;56.67
50349;BME280;36250;48.740;22.174;2023-04-24T06:37:21;99838.31;;;14.55;57.08
50349;BME280;36250;48.740;22.174;2023-04-24T06:39:46;99833.34;;;14.62;58.00
50349;BME280;36250;48.740;22.174;2023-04-24T06:42:12;99839.84;;;14.71;57.60
50349;BME280;36250;48.740;22.174;2023-04-24T06:44:37;99838.41;;;14.79;57.74
50349;BME280;36250;48.740;22.174;2023-04-24T06:47:09;99844.56;;;14.94;57.53
50349;BME280;36250;48.740;22.174;2023-04-24T06:49:36;99840.41;;;15.02;57.41
50349;BME280;36250;48.740;22.174;2023-04-24T06:52:02;99836.78;;;15.06;56.13
50349;BME280;36250;48.740;22.174;2023-04-24T06:54:28;99836.16;;;15.14;55.95
50349;BME280;36250;48.740;22.174;2023-04-24T06:56:54;99831.59;;;15.34;56.53
50349;BME280;36250;48.740;22.174;2023-04-24T06:59:19;99825.97;;;15.49;55.61
50349;BME280;36250;48.740;22.174;2023-04-24T07:01:44;99828.03;;;15.62;54.47
50349;BME280;36250;48.740;22.174;2023-04-24T07:04:10;99832.06;;;15.69;55.22
50349;BME280;36250;48.740;22.174;2023-04-24T07:06:37;99837.13;;;15.81;56.10
50349;BME280;36250;48.740;22.174;2023-04-24T07:09:02;99836.31;;;15.99;55.00
50349;BME280;36250;48.740;22.174;2023-04-24T07:11:28;99826.19;;;16.18;50.71
50349;BME280;36250;48.740;22.174;2023-04-24T07:13:55;99824.78;;;16.39;48.87
50349;BME280;36250;48.740;22.174;2023-04-24T07:16:20;99817.88;;;16.61;48.18
50349;BME280;36250;48.740;22.174;2023-04-24T07:18:45;99820.81;;;16.83;47.79
50349;BME280;36250;48.740;22.174;2023-04-24T07:21:11;99818.72;;;16.93;46.20
50349;BME280;36250;48.740;22.174;2023-04-24T07:23:36;99811.13;;;17.04;46.29
50349;BME280;36250;48.740;22.174;2023-04-24T07:26:02;99810.94;;;17.14;45.98
50349;BME280;36250;48.740;22.174;2023-04-24T07:28:27;99804.13;;;17.25;45.91
50349;BME280;36250;48.740;22.174;2023-04-24T07:30:56;99809.63;;;17.39;46.50
50349;BME280;36250;48.740;22.174;2023-04-24T07:33:21;99813.00;;;17.49;45.47
50349;BME280;36250;48.740;22.174;2023-04-24T07:35:47;99800.81;;;17.55;44.51
50349;BME280;36250;48.740;22.174;2023-04-24T07:38:12;99801.50;;;17.61;44.60
50349;BME280;36250;48.740;22.174;2023-04-24T07:40:38;99797.44;;;17.72;44.65
50349;BME280;36250;48.740;22.174;2023-04-24T07:43:03;99799.28;;;17.77;43.06
50349;BME280;36250;48.740;22.174;2023-04-24T07:45:28;99802.41;;;17.84;44.45
50349;BME280;36250;48.740;22.174;2023-04-24T07:47:54;99806.78;;;17.98;44.45
50349;BME280;36250;48.740;22.174;2023-04-24T07:50:20;99801.66;;;18.05;42.41
50349;BME280;36250;48.740;22.174;2023-04-24T07:52:45;99806.25;;;18.10;43.61
50349;BME280;36250;48.740;22.174;2023-04-24T07:55:11;99793.50;;;18.14;42.30
50349;BME280;36250;48.740;22.174;2023-04-24T07:57:36;99788.16;;;18.17;43.10
50349;BME280;36250;48.740;22.174;2023-04-24T08:00:03;99785.13;;;18.19;42.00
50349;BME280;36250;48.740;22.174;2023-04-24T08:02:29;99782.66;;;18.17;42.46
50349;BME280;36250;48.740;22.174;2023-04-24T08:04:54;99777.97;;;18.18;42.66
50349;BME280;36250;48.740;22.174;2023-04-24T08:07:20;99777.84;;;18.23;42.80
50349;BME280;36250;48.740;22.174;2023-04-24T08:09:45;99779.38;;;18.29;42.72
50349;BME280;36250;48.740;22.174;2023-04-24T08:12:11;99769.75;;;18.40;43.37
50349;BME280;36250;48.740;22.174;2023-04-24T08:14:36;99768.53;;;18.46;42.52
50349;BME280;36250;48.740;22.174;2023-04-24T08:17:01;99771.66;;;18.53;43.32
50349;BME280;36250;48.740;22.174;2023-04-24T08:19:27;99763.56;;;18.57;42.61
50349;BME280;36250;48.740;22.174;2023-04-24T08:21:53;99770.41;;;18.59;43.25
50349;BME280;36250;48.740;22.174;2023-04-24T08:24:18;99769.94;;;18.66;43.42
50349;BME280;36250;48.740;22.174;2023-04-24T08:26:43;99758.50;;;18.72;43.49
50349;BME280;36250;48.740;22.174;2023-04-24T08:29:09;99754.47;;;18.78;42.19
50349;BME280;36250;48.740;22.174;2023-04-24T08:31:34;99755.97;;;18.84;42.31
50349;BME280;36250;48.740;22.174;2023-04-24T08:34:00;99748.25;;;18.95;42.44
50349;BME280;36250;48.740;22.174;2023-04-24T08:36:26;99750.06;;;18.99;41.08
50349;BME280;36250;48.740;22.174;2023-04-24T08:38:51;99748.16;;;19.09;40.80
50349;BME280;36250;48.740;22.174;2023-04-24T08:41:18;99744.78;;;19.20;40.77
50349;BME280;36250;48.740;22.174;2023-04-24T08:43:46;99749.19;;;19.21;41.66
50349;BME280;36250;48.740;22.174;2023-04-24T08:46:12;99745.00;;;19.32;40.96
50349;BME280;36250;48.740;22.174;2023-04-24T08:48:39;99748.97;;;19.40;40.48
50349;BME280;36250;48.740;22.174;2023-04-24T08:51:06;99744.75;;;19.42;40.92
50349;BME280;36250;48.740;22.174;2023-04-24T08:53:32;99736.19;;;19.52;40.74
50349;BME280;36250;48.740;22.174;2023-04-24T08:55:58;99742.88;;;19.60;41.00
50349;BME280;36250;48.740;22.174;2023-04-24T08:58:27;99738.66;;;19.71;41.56
50349;BME280;36250;48.740;22.174;2023-04-24T09:00:57;99744.06;;;19.85;40.09
50349;BME280;36250;48.740;22.174;2023-04-24T09:03:22;99736.06;;;19.83;40.30
50349;BME280;36250;48.740;22.174;2023-04-24T09:05:49;99733.81;;;19.85;39.90
50349;BME280;36250;48.740;22.174;2023-04-24T09:08:17;99724.38;;;19.86;40.10
50349;BME280;36250;48.740;22.174;2023-04-24T09:10:43;99731.56;;;19.87;40.45
50349;BME280;36250;48.740;22.174;2023-04-24T09:13:09;99735.75;;;19.93;39.91
50349;BME280;36250;48.740;22.174;2023-04-24T09:15:35;99726.19;;;19.99;39.51
50349;BME280;36250;48.740;22.174;2023-04-24T09:18:01;99721.00;;;20.06;40.30
50349;BME280;36250;48.740;22.174;2023-04-24T09:20:27;99727.19;;;20.12;38.81
50349;BME280;36250;48.740;22.174;2023-04-24T09:22:57;99719.22;;;20.19;40.19
50349;BME280;36250;48.740;22.174;2023-04-24T09:25:25;99711.75;;;20.28;39.78
50349;BME280;36250;48.740;22.174;2023-04-24T09:28:00;99712.41;;;20.34;39.14
50349;BME280;36250;48.740;22.174;2023-04-24T09:30:26;99706.72;;;20.39;39.27
50349;BME280;36250;48.740;22.174;2023-04-24T09:33:15;99701.97;;;20.48;38.52
50349;BME280;36250;48.740;22.174;2023-04-24T09:35:52;99699.22;;;20.56;39.17
50349;BME280;36250;48.740;22.174;2023-04-24T09:38:18;99697.88;;;20.62;39.13
50349;BME280;36250;48.740;22.174;2023-04-24T09:40:43;99693.66;;;20.65;39.82
50349;BME280;36250;48.740;22.174;2023-04-24T09:43:11;99695.72;;;20.76;39.13
50349;BME280;36250;48.740;22.174;2023-04-24T09:45:38;99691.78;;;20.86;39.58
50349;BME280;36250;48.740;22.174;2023-04-24T09:48:04;99684.13;;;20.91;39.38
50349;BME280;36250;48.740;22.174;2023-04-24T09:50:32;99680.66;;;21.03;38.59
50349;BME280;36250;48.740;22.174;2023-04-24T09:52:59;99680.19;;;21.10;38.07
50349;BME280;36250;48.740;22.174;2023-04-24T09:55:27;99675.44;;;21.19;39.35
50349;BME280;36250;48.740;22.174;2023-04-24T09:58:02;99676.19;;;21.28;38.64
50349;BME280;36250;48.740;22.174;2023-04-24T10:00:32;99675.41;;;21.27;38.14
50349;BME280;36250;48.740;22.174;2023-04-24T10:02:59;99672.22;;;21.37;38.31
50349;BME280;36250;48.740;22.174;2023-04-24T10:05:30;99676.91;;;21.45;38.80
50349;BME280;36250;48.740;22.174;2023-04-24T10:08:07;99674.59;;;21.47;36.81
50349;BME280;36250;48.740;22.174;2023-04-24T10:10:37;99668.78;;;21.40;37.16
50349;BME280;36250;48.740;22.174;2023-04-24T10:13:03;99671.09;;;21.38;36.77
50349;BME280;36250;48.740;22.174;2023-04-24T10:15:29;99665.84;;;21.45;36.30
50349;BME280;36250;48.740;22.174;2023-04-24T10:17:57;99667.47;;;21.46;36.80
50349;BME280;36250;48.740;22.174;2023-04-24T10:20:25;99663.16;;;21.57;36.02
50349;BME280;36250;48.740;22.174;2023-04-24T10:22:52;99662.94;;;21.63;36.29
50349;BME280;36250;48.740;22.174;2023-04-24T10:25:24;99658.56;;;21.62;37.63
50349;BME280;36250;48.740;22.174;2023-04-24T10:27:51;99660.81;;;21.68;37.00
50349;BME280;36250;48.740;22.174;2023-04-24T10:30:18;99654.72;;;21.75;36.15
50349;BME280;36250;48.740;22.174;2023-04-24T10:32:44;99637.22;;;21.83;36.47
50349;BME280;36250;48.740;22.174;2023-04-24T10:35:12;99647.72;;;21.98;36.49
50349;BME280;36250;48.740;22.174;2023-04-24T10:37:40;99638.84;;;22.04;35.90
50349;BME280;36250;48.740;22.174;2023-04-24T10:40:09;99635.56;;;22.23;36.55
50349;BME280;36250;48.740;22.174;2023-04-24T10:42:39;99635.34;;;22.28;35.33
50349;BME280;36250;48.740;22.174;2023-04-24T10:45:06;99628.88;;;22.24;35.53
50349;BME280;36250;48.740;22.174;2023-04-24T10:47:41;99634.13;;;22.38;36.38
50349;BME280;36250;48.740;22.174;2023-04-24T10:50:10;99628.03;;;22.44;35.47
50349;BME280;36250;48.740;22.174;2023-04-24T10:52:49;99622.50;;;22.56;35.13
50349;BME280;36250;48.740;22.174;2023-04-24T10:55:16;99614.81;;;22.62;34.84
50349;BME280;36250;48.740;22.174;2023-04-24T10:58:03;99614.63;;;22.79;34.38
50349;BME280;36250;48.740;22.174;2023-04-24T11:00:29;99622.81;;;22.87;33.77
50349;BME280;36250;48.740;22.174;2023-04-24T11:02:55;99617.50;;;22.95;32.32
50349;BME280;36250;48.740;22.174;2023-04-24T11:05:21;99613.69;;;22.87;32.14
50349;BME280;36250;48.740;22.174;2023-04-24T11:08:12;99615.84;;;22.81;32.99
50349;BME280;36250;48.740;22.174;2023-04-24T11:10:54;99623.41;;;22.81;32.92
50349;BME280;36250;48.740;22.174;2023-04-24T11:13:24;99620.97;;;22.92;32.11
50349;BME280;36250;48.740;22.174;2023-04-24T11:16:20;99621.19;;;22.99;33.30
50349;BME280;36250;48.740;22.174;2023-04-24T11:18:50;99608.25;;;23.15;33.22
50349;BME280;36250;48.740;22.174;2023-04-24T11:21:20;99608.00;;;23.32;31.25
50349;BME280;36250;48.740;22.174;2023-04-24T11:23:46;99601.63;;;23.31;31.42
50349;BME280;36250;48.740;22.174;2023-04-24T11:26:32;99598.41;;;23.41;32.72
50349;BME280;36250;48.740;22.174;2023-04-24T11:29:06;99601.50;;;23.64;32.18
50349;BME280;36250;48.740;22.174;2023-04-24T11:31:40;99596.34;;;23.78;32.26
50349;BME280;36250;48.740;22.174;2023-04-24T11:34:11;99592.63;;;23.86;29.46
50349;BME280;36250;48.740;22.174;2023-04-24T11:36:38;99590.56;;;23.83;30.90
50349;BME280;36250;48.740;22.174;2023-04-24T11:39:04;99580.28;;;23.99;31.17
50349;BME280;36250;48.740;22.174;2023-04-24T11:41:30;99581.91;;;24.00;29.77
50349;BME280;36250;48.740;22.174;2023-04-24T11:43:56;99589.34;;;23.96;30.45
50349;BME280;36250;48.740;22.174;2023-04-24T11:46:22;99591.19;;;23.92;29.78
50349;BME280;36250;48.740;22.174;2023-04-24T11:48:47;99586.38;;;23.77;29.75
50349;BME280;36250;48.740;22.174;2023-04-24T11:51:13;99586.59;;;23.57;29.75
50349;BME280;36250;48.740;22.174;2023-04-24T11:53:39;99581.59;;;23.50;30.00
50349;BME280;36250;48.740;22.174;2023-04-24T11:56:05;99583.94;;;23.36;30.06
50349;BME280;36250;48.740;22.174;2023-04-24T11:58:38;99580.13;;;23.16;30.48
50349;BME280;36250;48.740;22.174;2023-04-24T12:01:04;99579.81;;;23.06;30.83
50349;BME280;36250;48.740;22.174;2023-04-24T12:03:30;99569.25;;;23.11;31.88
50349;BME280;36250;48.740;22.174;2023-04-24T12:06:06;99563.13;;;23.18;30.75
50349;BME280;36250;48.740;22.174;2023-04-24T12:08:33;99566.78;;;23.34;30.78
50349;BME280;36250;48.740;22.174;2023-04-24T12:11:03;99562.50;;;23.48;30.52
50349;BME280;36250;48.740;22.174;2023-04-24T12:13:29;99552.38;;;23.68;30.40
50349;BME280;36250;48.740;22.174;2023-04-24T12:15:56;99555.75;;;23.89;31.27
50349;BME280;36250;48.740;22.174;2023-04-24T12:18:22;99554.88;;;24.13;31.42
50349;BME280;36250;48.740;22.174;2023-04-24T12:20:48;99549.34;;;24.29;30.22
50349;BME280;36250;48.740;22.174;2023-04-24T12:23:14;99541.53;;;24.34;30.18
50349;BME280;36250;48.740;22.174;2023-04-24T12:25:39;99537.06;;;24.30;30.47
50349;BME280;36250;48.740;22.174;2023-04-24T12:30:33;99535.97;;;24.34;30.23
50349;BME280;36250;48.740;22.174;2023-04-24T12:32:59;99535.44;;;24.44;29.79
50349;BME280;36250;48.740;22.174;2023-04-24T12:35:27;99522.69;;;24.59;29.42
50349;BME280;36250;48.740;22.174;2023-04-24T12:37:53;99520.97;;;24.39;29.13
50349;BME280;36250;48.740;22.174;2023-04-24T12:40:20;99518.00;;;24.16;29.05
50349;BME280;36250;48.740;22.174;2023-04-24T12:42:47;99515.81;;;23.94;29.53
50349;BME280;36250;48.740;22.174;2023-04-24T12:45:14;99511.16;;;23.70;30.91
50349;BME280;36250;48.740;22.174;2023-04-24T12:47:41;99536.25;;;23.34;32.99
50349;BME280;36250;48.740;22.174;2023-04-24T12:50:08;99537.44;;;22.60;37.48
50349;BME280;36250;48.740;22.174;2023-04-24T12:52:33;99530.47;;;21.85;39.19